Taisho Maru — JI3307 — position and weather

sailwx.info

Track history (hours):
 
Tides and Currents Weather Stations Pressure Air Temp Water Temp Dewpoint Dewpoint Depression Visibility Wind Speed Wind Dir Waves Ship Positions

Taisho Maru

Last reported at 2014-Dec-17 20:19 UTC. Time now 2014-Dec-18 02:34 UTC.
Position N 33°54' E 134°59'.

Length 93 m; draft 7.3 m.

Type: Cargo ship. MMSI: 431300084.

Date/timePositionNaut miles runAvg speedWind from/ knotsBaromVisibWave heightAir tempDewpointWater temp
2014-Dec-17 20:19N 33°54' E 134°59'1012.2
2014-Dec-17 19:32N 34°04' E 134°59'1212.3
2014-Dec-17 18:32N 34°16' E 134°58'1212.1
2014-Dec-17 17:33N 34°28' E 135°01'9 9.1
2014-Dec-17 16:33N 34°37' E 134°58'1412.6
2014-Dec-17 15:25N 34°40' E 134°42'1 0.0
2014-Dec-15 19:16N 34°40' E 134°43'1013.8
2014-Dec-15 18:33N 34°37' E 134°54'1110.7
2014-Dec-15 17:33N 34°31' E 135°05'1513.5
2014-Dec-15 16:27N 34°16' E 134°60'7 8.0
2014-Dec-15 15:33N 34°14' E 135°08'0 0.0
2014-Dec-15 14:33N 34°14' E 135°08'0 0.0
2014-Dec-15 13:33N 34°14' E 135°08'0 0.0
2014-Dec-15 12:28N 34°14' E 135°08'8 9.2
2014-Dec-15 11:33N 34°18' E 134°59'1413.8
2014-Dec-15 10:33N 34°29' E 135°08'1413.7
2014-Dec-15 09:33N 34°37' E 135°22'5 3.5
2014-Dec-15 08:05N 34°40' E 135°27'0 0.0
2014-Dec-15 06:29N 34°40' E 135°27'0 0.0
2014-Dec-15 00:05N 34°40' E 135°27'0 0.0
2014-Dec-14 23:23N 34°40' E 135°27'2 2.2
2014-Dec-14 22:33N 34°39' E 135°25'5 5.3
2014-Dec-14 21:33N 34°36' E 135°19'0 0.0
2014-Dec-14 20:33N 34°36' E 135°19'0 0.0
2014-Dec-14 19:33N 34°36' E 135°19'0 0.0
2014-Dec-14 18:33N 34°36' E 135°19'0 0.0
2014-Dec-14 17:27N 34°36' E 135°19'0 0.0
2014-Dec-14 16:33N 34°36' E 135°19'0 0.0
2014-Dec-14 15:33N 34°36' E 135°19'0 0.0
2014-Dec-14 14:33N 34°36' E 135°19'0 0.0
2014-Dec-14 13:33N 34°36' E 135°19'0 0.0
2014-Dec-14 12:21N 34°36' E 135°19'0 0.0
2014-Dec-14 11:33N 34°36' E 135°19'6 5.9
2014-Dec-14 10:33N 34°32' E 135°15'1211.8
2014-Dec-14 09:31N 34°23' E 135°05'8 8.4
2014-Dec-14 08:33N 34°15' E 135°02'5 4.9
2014-Dec-14 07:32N 34°14' E 135°08'0 0.0
2014-Dec-14 06:32N 34°14' E 135°08'0 0.0
2014-Dec-14 05:32N 34°14' E 135°08'0 0.0
2014-Dec-14 04:29N 34°14' E 135°08'0 0.0
2014-Dec-14 03:32N 34°14' E 135°08'0 0.0
2014-Dec-14 02:32N 34°14' E 135°08'0 0.0
2014-Dec-14 01:32N 34°14' E 135°08'0 0.0
2014-Dec-14 00:32N 34°14' E 135°08'0 0.0
2014-Dec-13 23:32N 34°14' E 135°08'0 0.0
2014-Dec-13 22:29N 34°14' E 135°08'0 0.0
2014-Dec-13 21:32N 34°14' E 135°08'0 0.0
2014-Dec-13 20:32N 34°14' E 135°08'0 0.0
2014-Dec-13 19:33N 34°14' E 135°08'2 1.6
2014-Dec-13 18:33N 34°14' E 135°06'1111.5
2014-Dec-13 17:33N 34°03' E 135°02'238 9.1
2014-Dec-12 15:22N 35°06' E 139°41'1011.9
2014-Dec-12 14:32N 35°14' E 139°46'1212.5
2014-Dec-12 13:34N 35°26' E 139°42'3 3.0
2014-Dec-12 12:31N 35°29' E 139°40'0 0.0
2014-Dec-12 11:31N 35°29' E 139°40'0 0.0
2014-Dec-12 10:31N 35°29' E 139°40'0 0.0
2014-Dec-12 09:31N 35°29' E 139°40'0 0.0
2014-Dec-12 08:31N 35°29' E 139°40'0 0.0
2014-Dec-12 07:31N 35°29' E 139°40'0 0.0
2014-Dec-12 06:31N 35°29' E 139°40'0 0.0
2014-Dec-12 05:31N 35°29' E 139°40'0 0.0
2014-Dec-12 04:31N 35°29' E 139°40'0 0.0
2014-Dec-12 03:31N 35°29' E 139°40'2 2.0
2014-Dec-12 02:34N 35°27' E 139°41'1 1.3
2014-Dec-12 01:33N 35°26' E 139°42'8 8.5
2014-Dec-12 00:33N 35°18' E 139°45'1211.1
2014-Dec-11 23:28N 35°06' E 139°44'  
2014-Dec-07 22:31N 33°58' E 134°59'1212.1
2014-Dec-07 21:33N 34°09' E 135°03'6 5.7
2014-Dec-07 20:32N 34°14' E 135°08'  
Track history (hours):
 
Tides and Currents Weather Stations Pressure Air Temp Water Temp Dewpoint Dewpoint Depression Visibility Wind Speed Wind Dir Waves Ship Positions

Taisho Maru

Last reported at 2014-Dec-17 20:19 UTC. Time now 2014-Dec-18 02:34 UTC.
Position N 33°54' E 134°59'.

Length 93 m; draft 7.3 m.

Type: Cargo ship. MMSI: 431300084.

Date/timePositionNaut miles runAvg speedWind from/ knotsBaromVisibWave heightAir tempDewpointWater temp
2014-Dec-17 20:19N 33°54' E 134°59'1012.2
2014-Dec-17 19:32N 34°04' E 134°59'1212.3
2014-Dec-17 18:32N 34°16' E 134°58'1212.1
2014-Dec-17 17:33N 34°28' E 135°01'9 9.1
2014-Dec-17 16:33N 34°37' E 134°58'1412.6
2014-Dec-17 15:25N 34°40' E 134°42'1 0.0
2014-Dec-15 19:16N 34°40' E 134°43'1013.8
2014-Dec-15 18:33N 34°37' E 134°54'1110.7
2014-Dec-15 17:33N 34°31' E 135°05'1513.5
2014-Dec-15 16:27N 34°16' E 134°60'7 8.0
2014-Dec-15 15:33N 34°14' E 135°08'0 0.0
2014-Dec-15 14:33N 34°14' E 135°08'0 0.0
2014-Dec-15 13:33N 34°14' E 135°08'0 0.0
2014-Dec-15 12:28N 34°14' E 135°08'8 9.2
2014-Dec-15 11:33N 34°18' E 134°59'1413.8
2014-Dec-15 10:33N 34°29' E 135°08'1413.7
2014-Dec-15 09:33N 34°37' E 135°22'5 3.5
2014-Dec-15 08:05N 34°40' E 135°27'0 0.0
2014-Dec-15 06:29N 34°40' E 135°27'0 0.0
2014-Dec-15 00:05N 34°40' E 135°27'0 0.0
2014-Dec-14 23:23N 34°40' E 135°27'2 2.2
2014-Dec-14 22:33N 34°39' E 135°25'5 5.3
2014-Dec-14 21:33N 34°36' E 135°19'0 0.0
2014-Dec-14 20:33N 34°36' E 135°19'0 0.0
2014-Dec-14 19:33N 34°36' E 135°19'0 0.0
2014-Dec-14 18:33N 34°36' E 135°19'0 0.0
2014-Dec-14 17:27N 34°36' E 135°19'0 0.0
2014-Dec-14 16:33N 34°36' E 135°19'0 0.0
2014-Dec-14 15:33N 34°36' E 135°19'0 0.0
2014-Dec-14 14:33N 34°36' E 135°19'0 0.0
2014-Dec-14 13:33N 34°36' E 135°19'0 0.0
2014-Dec-14 12:21N 34°36' E 135°19'0 0.0
2014-Dec-14 11:33N 34°36' E 135°19'6 5.9
2014-Dec-14 10:33N 34°32' E 135°15'1211.8
2014-Dec-14 09:31N 34°23' E 135°05'8 8.4
2014-Dec-14 08:33N 34°15' E 135°02'5 4.9
2014-Dec-14 07:32N 34°14' E 135°08'0 0.0
2014-Dec-14 06:32N 34°14' E 135°08'0 0.0
2014-Dec-14 05:32N 34°14' E 135°08'0 0.0
2014-Dec-14 04:29N 34°14' E 135°08'0 0.0
2014-Dec-14 03:32N 34°14' E 135°08'0 0.0
2014-Dec-14 02:32N 34°14' E 135°08'0 0.0
2014-Dec-14 01:32N 34°14' E 135°08'0 0.0
2014-Dec-14 00:32N 34°14' E 135°08'0 0.0
2014-Dec-13 23:32N 34°14' E 135°08'0 0.0
2014-Dec-13 22:29N 34°14' E 135°08'0 0.0
2014-Dec-13 21:32N 34°14' E 135°08'0 0.0
2014-Dec-13 20:32N 34°14' E 135°08'0 0.0
2014-Dec-13 19:33N 34°14' E 135°08'2 1.6
2014-Dec-13 18:33N 34°14' E 135°06'1111.5
2014-Dec-13 17:33N 34°03' E 135°02'238 9.1
2014-Dec-12 15:22N 35°06' E 139°41'1011.9
2014-Dec-12 14:32N 35°14' E 139°46'1212.5
2014-Dec-12 13:34N 35°26' E 139°42'3 3.0
2014-Dec-12 12:31N 35°29' E 139°40'0 0.0
2014-Dec-12 11:31N 35°29' E 139°40'0 0.0
2014-Dec-12 10:31N 35°29' E 139°40'0 0.0
2014-Dec-12 09:31N 35°29' E 139°40'0 0.0
2014-Dec-12 08:31N 35°29' E 139°40'0 0.0
2014-Dec-12 07:31N 35°29' E 139°40'0 0.0
2014-Dec-12 06:31N 35°29' E 139°40'0 0.0
2014-Dec-12 05:31N 35°29' E 139°40'0 0.0
2014-Dec-12 04:31N 35°29' E 139°40'0 0.0
2014-Dec-12 03:31N 35°29' E 139°40'2 2.0
2014-Dec-12 02:34N 35°27' E 139°41'1 1.3
2014-Dec-12 01:33N 35°26' E 139°42'8 8.5
2014-Dec-12 00:33N 35°18' E 139°45'1211.1
2014-Dec-11 23:28N 35°06' E 139°44'  
2014-Dec-07 22:31N 33°58' E 134°59'1212.1
2014-Dec-07 21:33N 34°09' E 135°03'6 5.7
2014-Dec-07 20:32N 34°14' E 135°08'  

Dump ship's entire track history